Time;durP1;ratioP1;P1;durP2;ratioP2;P2;SDS_P1;SDS_P2;PMS_P1;PMS_P2;Temp;Humidity;BMP_temperature;BMP_pressure;BME280_temperature;BME280_humidity;BME280_pressure;Samples;Min_cycle;Max_cycle;Signal;HPM_P1;HPM_P2
2022/11/08 00:02:20;;;;;;;2.65;0.80;;;;;;;15.64;88.92;100335.34;5023871;28;20478;-72
2022/11/08 00:04:45;;;;;;;0.75;0.55;;;;;;;15.59;89.26;100333.03;5037179;28;20048;-72
2022/11/08 00:15:26;;;;;;;1.85;0.75;;;;;;;15.91;88.03;100332.88;5009847;28;20034;-73
2022/11/08 00:17:51;;;;;;;2.22;0.57;;;;;;;15.95;87.31;100333.63;5019996;28;20044;-72
2022/11/08 00:20:17;;;;;;;2.42;0.80;;;;;;;15.81;88.17;100333.69;5024845;28;20083;-72
2022/11/08 00:22:42;;;;;;;4.53;0.90;;;;;;;15.73;88.62;100337.63;5008960;28;20038;-72
2022/11/08 00:25:09;;;;;;;1.52;0.82;;;;;;;15.84;88.17;100339.09;5012102;28;20513;-72
2022/11/08 00:27:34;;;;;;;2.13;0.80;;;;;;;15.85;88.17;100337.91;5027174;28;20041;-73
2022/11/08 00:30:00;;;;;;;5.60;0.60;;;;;;;15.94;87.90;100334.78;5024073;28;20391;-73
2022/11/08 00:32:25;;;;;;;0.57;0.40;;;;;;;16.00;87.24;100339.41;5011284;28;20092;-73
2022/11/08 00:34:51;;;;;;;0.95;0.65;;;;;;;16.05;87.12;100338.19;5021105;28;20364;-72
2022/11/08 00:37:18;;;;;;;2.00;0.57;;;;;;;16.07;86.67;100342.06;5026293;28;20041;-73
2022/11/08 00:39:44;;;;;;;5.72;0.57;;;;;;;16.07;86.64;100331.19;5012104;28;20084;-73
2022/11/08 00:42:10;;;;;;;1.52;0.88;;;;;;;16.06;86.85;100339.75;5012775;28;20109;-72
2022/11/08 00:44:35;;;;;;;3.45;0.57;;;;;;;16.15;86.14;100342.78;5017937;28;20120;-72
2022/11/08 00:47:01;;;;;;;1.63;0.60;;;;;;;16.11;85.98;100337.38;5011047;28;20077;-72
2022/11/08 00:49:27;;;;;;;0.75;0.50;;;;;;;16.07;86.46;100341.28;5037629;28;20144;-72
2022/11/08 00:51:52;;;;;;;0.68;0.43;;;;;;;16.07;86.58;100341.28;5028203;28;20508;-73
2022/11/08 00:54:19;;;;;;;2.38;0.77;;;;;;;16.06;86.45;100337.03;5018089;28;20470;-72
2022/11/08 00:56:46;;;;;;;0.47;0.47;;;;;;;16.12;86.12;100333.47;5012072;28;20040;-72
2022/11/08 00:59:13;;;;;;;0.85;0.68;;;;;;;16.07;86.46;100336.63;5020062;28;20060;-73
2022/11/08 01:01:39;;;;;;;1.50;0.60;;;;;;;16.00;86.37;100330.47;5004399;28;20572;-72
2022/11/08 01:04:25;;;;;;;0.70;0.43;;;;;;;16.01;86.32;100340.94;5018010;28;20045;-72
2022/11/08 01:06:51;;;;;;;4.07;0.63;;;;;;;16.00;86.70;100327.75;4984421;28;20046;-73
2022/11/08 01:09:16;;;;;;;0.90;0.60;;;;;;;15.99;86.89;100335.13;4978435;28;20049;-72
2022/11/08 01:11:45;;;;;;;0.93;0.50;;;;;;;15.93;87.02;100334.00;4979313;28;20750;-72
2022/11/08 01:14:11;;;;;;;0.40;0.38;;;;;;;15.86;87.01;100339.47;4970642;28;20038;-72
2022/11/08 01:16:37;;;;;;;1.75;0.75;;;;;;;15.92;87.16;100332.47;4961986;28;20905;-72
2022/11/08 01:19:02;;;;;;;1.45;0.52;;;;;;;15.95;86.81;100342.53;4983340;28;20600;-72
2022/11/08 01:21:28;;;;;;;1.08;0.50;;;;;;;15.84;86.98;100332.88;4987246;28;20045;-72
2022/11/08 01:23:53;;;;;;;1.35;0.70;;;;;;;15.86;87.01;100331.34;4971317;28;20050;-73
2022/11/08 01:26:27;;;;;;;3.90;0.47;;;;;;;15.78;86.98;100334.47;4971041;28;20034;-72
2022/11/08 01:28:54;;;;;;;1.48;0.80;;;;;;;15.87;86.59;100334.84;4980462;28;20170;-72
2022/11/08 01:31:25;;;;;;;1.20;0.52;;;;;;;15.82;87.16;100338.72;4967548;28;20035;-71
2022/11/08 01:33:50;;;;;;;5.05;0.85;;;;;;;15.81;87.12;100339.13;4971865;28;20034;-71
2022/11/08 01:36:18;;;;;;;0.82;0.70;;;;;;;15.79;87.31;100342.25;4974718;28;20046;-72
2022/11/08 01:38:44;;;;;;;1.60;0.70;;;;;;;15.76;87.49;100332.16;4964190;28;20558;-72
2022/11/08 01:41:14;;;;;;;1.42;0.60;;;;;;;15.66;87.74;100332.25;4971487;28;20035;-72
2022/11/08 01:43:50;;;;;;;4.20;0.75;;;;;;;15.78;87.66;100329.06;5002639;28;20053;-72
2022/11/08 01:46:19;;;;;;;1.73;0.55;;;;;;;15.80;87.59;100327.50;5024476;28;20034;-71
2022/11/08 01:48:50;;;;;;;2.20;0.68;;;;;;;15.73;87.05;100335.69;5010943;28;20092;-72
2022/11/08 01:51:22;;;;;;;6.00;0.70;;;;;;;15.74;87.16;100331.78;5028936;28;20030;-72
2022/11/08 01:53:48;;;;;;;;;;;;;;;15.73;87.14;100327.53;5028623;28;20080;-72
2022/11/08 01:56:14;;;;;;;1.70;0.57;;;;;;;15.67;87.39;100331.84;5022431;28;19917;-72
2022/11/08 01:58:44;;;;;;;1.42;0.60;;;;;;;15.70;87.63;100327.56;5015743;28;20190;-72
2022/11/08 02:01:11;;;;;;;2.65;0.77;;;;;;;15.73;87.36;100343.06;5017717;28;20100;-72
2022/11/08 02:03:38;;;;;;;3.72;0.70;;;;;;;15.67;87.48;100328.34;5012267;28;20056;-72
2022/11/08 02:06:04;;;;;;;2.00;0.70;;;;;;;15.48;88.09;100337.75;5012433;28;20121;-72
2022/11/08 02:08:41;;;;;;;1.60;0.77;;;;;;;15.63;87.49;100327.59;5021672;28;20061;-72
2022/11/08 02:11:08;;;;;;;2.17;0.52;;;;;;;15.58;88.23;100331.47;5023029;28;20033;-72
2022/11/08 02:13:36;;;;;;;2.25;0.63;;;;;;;15.65;87.40;100319.81;5027967;28;20359;-72
2022/11/08 02:16:02;;;;;;;2.53;1.15;;;;;;;15.59;87.53;100321.41;5015844;28;20136;-71
2022/11/08 02:18:30;;;;;;;8.07;0.95;;;;;;;15.62;87.48;100321.38;5019506;28;20518;-73
2022/11/08 02:21:21;;;;;;;1.10;0.47;;;;;;;15.71;87.33;100310.09;5018063;28;20088;-72
2022/11/08 02:23:50;;;;;;;0.68;0.50;;;;;;;15.63;87.40;100311.31;5012640;28;20116;-72
2022/11/08 02:26:19;;;;;;;2.97;0.75;;;;;;;15.57;87.54;100308.25;5022721;28;20049;-72
2022/11/08 02:28:47;;;;;;;1.75;0.60;;;;;;;15.67;87.15;100312.84;5023683;28;20548;-72
2022/11/08 02:31:17;;;;;;;2.10;0.70;;;;;;;15.67;87.07;100314.78;5029195;28;20025;-72
2022/11/08 02:33:44;;;;;;;1.65;0.68;;;;;;;15.70;87.23;100311.28;5014138;28;20041;-72
2022/11/08 02:36:13;;;;;;;2.60;0.95;;;;;;;15.59;87.60;100305.91;5015259;28;20065;-72
2022/11/08 02:38:43;;;;;;;3.13;0.60;;;;;;;15.64;87.58;100310.91;5027425;28;20036;-72
2022/11/08 02:41:11;;;;;;;2.72;0.95;;;;;;;15.75;87.23;100308.13;5017759;28;20032;-72
2022/11/08 02:43:37;;;;;;;3.42;1.38;;;;;;;15.69;87.08;100313.22;5033239;28;20045;-72
2022/11/08 02:46:02;;;;;;;2.25;0.60;;;;;;;15.71;87.08;100316.31;5028873;28;20120;-72
2022/11/08 02:48:28;;;;;;;1.65;0.80;;;;;;;15.43;88.03;100308.31;5028068;28;20025;-72
2022/11/08 02:50:53;;;;;;;2.78;0.63;;;;;;;15.49;88.54;100322.22;5031586;28;20032;-72
2022/11/08 02:53:19;;;;;;;0.85;0.60;;;;;;;15.43;88.31;100321.13;5021592;28;20029;-72
2022/11/08 02:55:45;;;;;;;2.00;0.73;;;;;;;15.35;88.85;100314.91;5028999;28;20092;-72
2022/11/08 02:58:11;;;;;;;0.90;0.50;;;;;;;15.43;88.31;100311.03;5020605;28;20117;-72
2022/11/08 03:00:37;;;;;;;0.50;0.50;;;;;;;15.49;88.22;100304.00;5037738;28;20037;-72
2022/11/08 03:03:03;;;;;;;1.98;0.60;;;;;;;15.55;88.18;100307.84;5019448;28;20040;-71
2022/11/08 03:05:29;;;;;;;1.05;0.68;;;;;;;15.47;88.24;100309.06;5015918;28;20124;-72
2022/11/08 03:07:55;;;;;;;0.73;0.60;;;;;;;15.35;88.98;100307.53;5017864;28;20041;-72
2022/11/08 03:10:22;;;;;;;1.15;0.50;;;;;;;15.51;88.29;100311.75;5024308;28;20041;-73
2022/11/08 03:13:00;;;;;;;1.38;0.80;;;;;;;15.51;87.98;100309.03;5018789;28;20022;-72
2022/11/08 03:15:27;;;;;;;3.22;0.88;;;;;;;15.51;87.95;100314.47;5019299;28;20093;-72
2022/11/08 03:17:54;;;;;;;1.42;0.63;;;;;;;15.46;87.99;100312.97;5025839;23;20374;-66
2022/11/08 03:20:20;;;;;;;6.55;1.00;;;;;;;15.40;88.26;100311.78;5017632;28;20502;-66
2022/11/08 03:22:45;;;;;;;1.83;0.50;;;;;;;15.40;88.37;100314.50;5014646;28;20117;-66
2022/11/08 03:25:11;;;;;;;1.55;0.68;;;;;;;15.38;87.97;100311.41;5010640;28;20037;-66
2022/11/08 03:27:36;;;;;;;1.77;0.43;;;;;;;15.35;88.23;100315.69;5012772;28;20589;-66
2022/11/08 03:30:03;;;;;;;1.08;0.57;;;;;;;15.27;87.99;100319.59;5013901;28;20029;-66
2022/11/08 03:32:31;;;;;;;3.13;0.60;;;;;;;15.19;88.89;100314.59;5012018;28;20397;-66
2022/11/08 03:34:58;;;;;;;0.73;0.40;;;;;;;15.27;88.46;100311.44;5015055;28;20022;-66
2022/11/08 03:37:24;;;;;;;1.00;0.50;;;;;;;15.12;89.23;100309.19;5011286;28;20034;-66
2022/11/08 03:39:49;;;;;;;1.50;0.65;;;;;;;15.03;89.73;100312.34;5018208;28;20409;-66
2022/11/08 03:42:15;;;;;;;0.70;0.50;;;;;;;15.04;89.75;100313.88;5011573;28;20044;-66
2022/11/08 03:44:40;;;;;;;2.42;0.60;;;;;;;14.94;89.90;100308.50;5011344;28;20052;-66
2022/11/08 03:47:05;;;;;;;0.60;0.50;;;;;;;14.93;90.16;100312.34;5011491;28;20062;-66
2022/11/08 03:49:31;;;;;;;1.85;0.45;;;;;;;14.68;91.35;100306.22;5022914;28;20041;-66
2022/11/08 03:51:56;;;;;;;3.30;0.73;;;;;;;14.51;92.14;100307.81;5026923;28;20117;-66
2022/11/08 03:54:21;;;;;;;1.70;0.52;;;;;;;14.67;91.81;100305.47;5012158;28;20061;-66
2022/11/08 03:56:47;;;;;;;0.75;0.50;;;;;;;14.73;91.48;100305.84;5012980;28;20042;-66
2022/11/08 03:59:12;;;;;;;0.98;0.60;;;;;;;14.80;90.63;100306.59;5009227;28;20048;-66
2022/11/08 04:01:38;;;;;;;1.50;0.93;;;;;;;14.68;90.70;100298.88;5005527;28;20037;-67
2022/11/08 04:04:07;;;;;;;2.55;0.80;;;;;;;14.82;90.97;100306.97;5013751;28;20049;-66
2022/11/08 04:06:32;;;;;;;3.17;0.52;;;;;;;14.72;91.13;100312.41;5015968;28;20030;-66
2022/11/08 04:08:58;;;;;;;2.03;0.40;;;;;;;14.44;92.58;100308.59;4997285;28;20116;-66
2022/11/08 04:16:52;;;;;;;4.35;1.33;;;;;;;14.45;92.97;100310.16;5007639;28;20116;-66
2022/11/08 04:22:07;;;;;;;0.93;0.80;;;;;;;14.48;92.25;100303.94;5018709;28;20474;-66
2022/11/08 04:24:32;;;;;;;1.25;0.82;;;;;;;14.48;92.43;100303.94;5013278;28;20041;-66
2022/11/08 04:26:57;;;;;;;1.77;0.80;;;;;;;14.33;93.11;100301.63;5024892;28;20447;-66
2022/11/08 04:29:23;;;;;;;1.73;1.10;;;;;;;14.38;92.57;100302.00;5016456;28;20034;-66
2022/11/08 04:31:51;;;;;;;2.10;0.80;;;;;;;14.53;91.81;100297.34;5015625;28;20045;-66
2022/11/08 04:34:16;;;;;;;0.70;0.70;;;;;;;14.51;91.64;100302.41;5027000;28;20401;-66
2022/11/08 04:36:41;;;;;;;1.33;0.70;;;;;;;14.33;92.26;100296.22;5030328;28;20041;-66
2022/11/08 04:39:07;;;;;;;0.88;0.80;;;;;;;14.46;91.66;100294.63;5016852;28;20128;-66
2022/11/08 04:41:32;;;;;;;2.72;0.90;;;;;;;14.25;92.15;100297.34;5012029;28;20022;-66
2022/11/08 04:43:58;;;;;;;12.20;1.00;;;;;;;14.24;92.50;100299.28;5011051;28;20069;-66
2022/11/08 04:46:25;;;;;;;3.13;1.05;;;;;;;14.22;92.37;100293.50;5011322;28;20049;-66
2022/11/08 04:48:56;;;;;;;3.22;1.65;;;;;;;13.96;94.44;100290.38;5010352;28;20057;-66
2022/11/08 04:51:27;;;;;;;5.75;0.73;;;;;;;14.13;93.83;100298.50;5026239;28;20029;-66
2022/11/08 04:53:55;;;;;;;2.00;0.90;;;;;;;14.27;93.25;100301.25;5011124;28;20030;-66
2022/11/08 04:56:21;;;;;;;1.02;0.68;;;;;;;14.32;92.41;100300.84;5010025;28;20065;-66
2022/11/08 04:58:48;;;;;;;1.95;1.10;;;;;;;14.29;91.86;100292.72;5006756;28;20500;-66
2022/11/08 05:01:17;;;;;;;1.33;0.73;;;;;;;14.17;92.20;100295.78;5012116;28;20508;-66
2022/11/08 05:03:44;;;;;;;1.10;1.00;;;;;;;14.21;92.51;100294.63;5013029;28;20037;-66
2022/11/08 05:06:14;;;;;;;1.98;0.70;;;;;;;14.28;92.37;100293.91;5027964;28;20056;-66
2022/11/08 05:08:40;;;;;;;2.40;0.75;;;;;;;14.31;91.91;100293.13;5015011;28;20501;-66
2022/11/08 05:11:09;;;;;;;1.25;0.70;;;;;;;14.01;93.05;100295.41;5013188;28;20044;-66
2022/11/08 05:13:35;;;;;;;1.15;0.85;;;;;;;14.17;93.03;100288.44;5016123;28;20045;-66
2022/11/08 05:16:02;;;;;;;2.75;0.60;;;;;;;14.10;92.86;100290.38;5011572;28;20075;-64
2022/11/08 05:18:29;;;;;;;2.88;0.98;;;;;;;14.13;92.81;100284.97;5014609;28;20041;-64
2022/11/08 05:23:39;;;;;;;0.93;0.68;;;;;;;14.12;92.11;100290.78;5021054;28;20037;-64
2022/11/08 05:26:05;;;;;;;1.75;0.55;;;;;;;14.00;92.50;100289.22;5022390;28;20091;-64
2022/11/08 05:28:31;;;;;;;2.10;0.95;;;;;;;14.10;92.24;100282.25;5026420;28;20040;-64
2022/11/08 05:30:56;;;;;;;1.05;1.00;;;;;;;14.04;92.33;100278.38;5035883;28;20030;-64
2022/11/08 05:33:22;;;;;;;1.73;0.80;;;;;;;13.92;93.04;100278.75;5017894;28;20037;-64
2022/11/08 05:35:48;;;;;;;2.70;0.65;;;;;;;13.97;92.81;100294.66;5022182;28;20069;-64
2022/11/08 05:38:14;;;;;;;1.60;0.90;;;;;;;13.90;93.09;100281.88;5025023;28;20033;-64
2022/11/08 05:40:39;;;;;;;1.30;0.70;;;;;;;14.02;92.99;100284.19;5015041;28;20030;-64
2022/11/08 05:43:05;;;;;;;3.75;0.82;;;;;;;14.03;92.74;100282.28;5007535;28;20034;-64
2022/11/08 05:45:30;;;;;;;6.00;0.93;;;;;;;13.97;92.92;100284.59;5029259;28;20060;-64
2022/11/08 05:47:56;;;;;;;1.75;1.10;;;;;;;13.97;92.67;100279.19;5020243;28;20398;-64
2022/11/08 05:50:23;;;;;;;4.18;0.98;;;;;;;13.94;92.63;100285.34;5025497;28;20383;-64
2022/11/08 05:52:52;;;;;;;1.08;0.93;;;;;;;13.84;92.70;100280.69;5043878;28;20037;-64
2022/11/08 05:55:17;;;;;;;4.85;1.15;;;;;;;13.88;93.04;100289.59;5024390;28;20437;-64
2022/11/08 05:57:43;;;;;;;4.80;1.00;;;;;;;13.93;93.04;100283.81;5023891;28;20041;-64
2022/11/08 06:00:10;;;;;;;2.53;0.73;;;;;;;13.77;93.18;100275.28;5026374;28;20022;-64
2022/11/08 06:02:37;;;;;;;2.03;1.00;;;;;;;13.71;93.65;100276.03;5013853;28;20513;-64
2022/11/08 06:05:04;;;;;;;5.18;1.33;;;;;;;13.66;93.98;100279.91;5026445;28;20044;-64
2022/11/08 06:07:50;;;;;;;5.85;1.02;;;;;;;13.74;93.52;100280.69;5027498;28;20057;-64
2022/11/08 06:10:15;;;;;;;1.77;0.90;;;;;;;13.63;94.07;100274.50;4986380;28;20084;-64
2022/11/08 06:12:44;;;;;;;3.33;0.90;;;;;;;13.71;94.17;100276.81;5007651;28;20069;-64
2022/11/08 06:15:09;;;;;;;7.15;1.10;;;;;;;13.72;93.90;100272.97;5006791;28;20124;-64
2022/11/08 06:17:35;;;;;;;1.40;0.95;;;;;;;13.69;93.29;100278.34;4963598;28;20157;-66
2022/11/08 06:20:00;;;;;;;3.47;0.85;;;;;;;13.78;93.48;100274.13;4988365;28;20042;-66
2022/11/08 06:22:30;;;;;;;0.82;0.80;;;;;;;13.57;94.23;100282.97;4989836;28;20112;-66
2022/11/08 06:24:55;;;;;;;3.65;1.05;;;;;;;13.61;94.24;100272.16;4992827;28;20112;-66
2022/11/08 06:27:21;;;;;;;2.67;1.00;;;;;;;13.80;92.61;100265.63;4986932;28;20054;-66
2022/11/08 06:29:46;;;;;;;1.52;1.10;;;;;;;13.51;94.09;100267.53;4988684;28;20038;-65
2022/11/08 06:32:11;;;;;;;0.70;0.63;;;;;;;13.55;93.81;100273.69;4989428;28;20549;-64
2022/11/08 06:34:37;;;;;;;3.95;0.80;;;;;;;13.62;94.30;100270.25;4989603;28;20613;-65
2022/11/08 06:37:03;;;;;;;3.17;1.10;;;;;;;13.61;94.22;100274.88;4983237;28;20065;-67
2022/11/08 06:39:32;;;;;;;3.97;1.52;;;;;;;13.63;94.41;100269.09;4973237;28;20034;-66
2022/11/08 06:41:58;;;;;;;3.40;1.27;;;;;;;13.61;94.09;100266.75;4989688;28;20045;-66
2022/11/08 06:44:24;;;;;;;1.73;0.93;;;;;;;13.79;93.09;100274.91;4983621;28;20122;-66
2022/11/08 06:46:54;;;;;;;1.48;0.82;;;;;;;13.78;92.94;100274.13;4995748;28;20136;-66
2022/11/08 06:49:21;;;;;;;2.00;0.90;;;;;;;13.72;93.79;100277.59;5010122;28;20690;-66
2022/11/08 06:51:47;;;;;;;4.68;1.05;;;;;;;13.86;93.32;100272.22;5008140;28;20091;-66
2022/11/08 06:54:12;;;;;;;1.33;0.90;;;;;;;13.87;92.25;100273.75;5012056;28;20042;-66
2022/11/08 06:56:37;;;;;;;1.95;0.90;;;;;;;13.81;92.61;100264.47;5007197;28;20036;-66
2022/11/08 06:59:03;;;;;;;1.42;0.90;;;;;;;13.76;92.76;100262.16;5013060;28;20479;-66
2022/11/08 07:01:28;;;;;;;1.17;0.98;;;;;;;13.67;93.41;100265.22;5013912;28;20038;-65
2022/11/08 07:03:53;;;;;;;0.90;0.70;;;;;;;13.74;93.67;100264.47;5016113;28;20072;-66
2022/11/08 07:06:19;;;;;;;1.48;0.95;;;;;;;13.69;93.54;100279.13;5007387;28;20080;-66
2022/11/08 07:08:44;;;;;;;2.75;0.93;;;;;;;13.79;92.84;100267.56;5005874;28;20048;-65
2022/11/08 07:11:10;;;;;;;2.88;1.20;;;;;;;13.75;93.50;100274.91;5003492;28;20038;-65
2022/11/08 07:13:35;;;;;;;4.47;1.23;;;;;;;13.92;92.89;100268.72;5017226;28;20044;-66
2022/11/08 07:16:01;;;;;;;2.05;1.13;;;;;;;13.84;92.11;100264.47;5019516;28;20057;-66
2022/11/08 07:18:27;;;;;;;2.28;1.23;;;;;;;13.82;92.87;100258.66;5009894;28;20042;-66
2022/11/08 07:20:56;;;;;;;1.17;0.80;;;;;;;14.01;92.12;100266.41;5009510;28;20040;-66
2022/11/08 07:23:21;;;;;;;2.45;1.27;;;;;;;13.80;92.35;100249.38;5013089;28;20052;-66
2022/11/08 07:25:47;;;;;;;2.88;1.10;;;;;;;13.84;92.83;100256.34;5009899;28;20485;-65
2022/11/08 07:28:16;;;;;;;1.10;1.00;;;;;;;13.89;92.75;100261.38;5011946;28;20581;-66
2022/11/08 07:30:41;;;;;;;1.00;0.85;;;;;;;13.86;91.91;100264.84;5010462;28;20037;-66
2022/11/08 07:33:06;;;;;;;3.83;1.25;;;;;;;13.67;93.16;100262.50;5011073;28;20036;-66
2022/11/08 07:35:32;;;;;;;2.03;1.05;;;;;;;13.87;92.43;100261.00;5014617;28;20028;-66
2022/11/08 07:37:57;;;;;;;2.58;0.98;;;;;;;13.77;92.37;100256.34;5025595;28;20060;-66
2022/11/08 07:40:23;;;;;;;2.75;1.02;;;;;;;13.53;93.74;100254.38;5010372;28;20034;-65
2022/11/08 07:42:49;;;;;;;5.13;1.17;;;;;;;13.55;93.98;100260.94;5011286;28;20052;-68
2022/11/08 07:45:14;;;;;;;1.27;0.82;;;;;;;13.51;94.44;100256.72;5009990;28;20041;-66
2022/11/08 07:47:40;;;;;;;0.98;0.80;;;;;;;13.70;93.17;100258.28;5019498;28;20100;-65
2022/11/08 07:50:06;;;;;;;1.83;0.80;;;;;;;13.91;91.86;100263.69;5015919;28;20041;-66
2022/11/08 07:52:31;;;;;;;2.03;1.17;;;;;;;13.74;91.48;100257.13;5008154;28;20347;-66
2022/11/08 07:54:57;;;;;;;1.73;1.05;;;;;;;13.77;93.41;100258.25;5023619;28;20040;-66
2022/11/08 07:57:22;;;;;;;3.08;0.90;;;;;;;13.64;92.98;100255.19;5025444;28;20029;-66
2022/11/08 07:59:48;;;;;;;2.63;1.48;;;;;;;13.83;92.12;100257.50;5014462;28;20109;-66
2022/11/08 08:02:14;;;;;;;1.42;0.90;;;;;;;13.90;91.82;100265.63;5015896;28;20051;-66
2022/11/08 08:04:40;;;;;;;1.95;1.00;;;;;;;14.10;91.45;100255.97;5021117;28;20094;-66
2022/11/08 08:07:06;;;;;;;1.60;0.82;;;;;;;14.19;90.33;100263.69;5013451;28;20034;-66
2022/11/08 08:09:35;;;;;;;1.27;0.77;;;;;;;14.42;89.16;100269.47;5032825;28;20036;-67
2022/11/08 08:12:01;;;;;;;4.63;1.17;;;;;;;14.58;88.81;100264.44;5024358;28;20041;-66
2022/11/08 08:14:27;;;;;;;1.70;0.90;;;;;;;14.10;89.92;100258.66;5041848;28;20099;-65
2022/11/08 08:16:52;;;;;;;3.33;1.27;;;;;;;14.64;88.90;100254.75;5025599;28;20053;-66
2022/11/08 08:19:18;;;;;;;1.80;1.30;;;;;;;14.82;87.63;100262.81;5025655;28;20045;-65
2022/11/08 08:21:43;;;;;;;0.82;0.73;;;;;;;14.80;86.35;100267.84;5027854;28;20451;-65
2022/11/08 08:24:09;;;;;;;2.03;1.13;;;;;;;15.03;85.62;100268.94;5021545;28;20052;-65
2022/11/08 08:26:34;;;;;;;1.65;0.93;;;;;;;15.01;85.34;100262.34;5007822;28;20520;-65
2022/11/08 08:29:00;;;;;;;2.17;1.10;;;;;;;15.01;85.18;100255.00;5025751;28;20088;-66
2022/11/08 08:31:45;;;;;;;2.83;0.90;;;;;;;15.06;85.44;100259.25;5037228;28;20036;-66
2022/11/08 08:34:11;;;;;;;0.85;0.82;;;;;;;15.24;84.46;100266.13;4955122;28;20467;-66
2022/11/08 08:36:36;;;;;;;1.90;0.80;;;;;;;15.29;82.97;100263.00;4961889;28;20042;-66
2022/11/08 08:39:02;;;;;;;2.28;0.68;;;;;;;15.26;83.75;100263.78;4954933;28;20057;-66
2022/11/08 08:41:28;;;;;;;0.50;0.47;;;;;;;15.24;82.92;100260.69;4945824;28;20023;-65
2022/11/08 08:43:54;;;;;;;7.68;0.68;;;;;;;15.63;81.53;100255.06;4944547;28;20137;-65
2022/11/08 08:46:19;;;;;;;3.97;0.70;;;;;;;15.61;80.55;100259.34;4945269;29;20078;-64
2022/11/08 08:48:45;;;;;;;1.08;0.90;;;;;;;15.63;80.92;100251.56;4947503;28;20133;-67
2022/11/08 08:51:10;;;;;;;1.45;0.80;;;;;;;15.58;81.12;100252.75;4946547;28;20063;-65
2022/11/08 08:53:35;;;;;;;1.25;0.88;;;;;;;15.53;80.89;100255.13;4946778;28;20522;-66
2022/11/08 08:56:04;;;;;;;10.10;1.05;;;;;;;15.60;81.03;100253.13;4945781;28;20043;-66
2022/11/08 08:58:29;;;;;;;2.95;1.00;;;;;;;15.69;80.90;100252.69;4946005;28;20043;-66
2022/11/08 09:00:59;;;;;;;1.27;0.82;;;;;;;15.71;80.19;100243.00;4938204;28;20051;-65
2022/11/08 09:03:25;;;;;;;0.77;0.60;;;;;;;15.64;80.15;100243.03;4949730;28;20155;-66
2022/11/08 09:05:50;;;;;;;0.90;0.60;;;;;;;15.71;80.14;100244.94;4948562;28;20046;-64
2022/11/08 09:08:15;;;;;;;1.35;0.65;;;;;;;15.57;80.09;100237.66;4943049;28;20035;-65
2022/11/08 09:10:42;;;;;;;1.67;0.82;;;;;;;15.68;79.73;100243.03;4961682;28;20481;-65
2022/11/08 09:13:07;;;;;;;0.65;0.60;;;;;;;15.56;80.32;100229.91;5010550;28;20442;-65
2022/11/08 09:15:33;;;;;;;0.60;0.50;;;;;;;15.50;81.41;100232.28;5012053;28;20066;-66
2022/11/08 09:17:59;;;;;;;1.35;0.68;;;;;;;15.18;82.67;100218.88;5046746;22;20037;-72
2022/11/08 09:20:24;;;;;;;1.50;0.60;;;;;;;15.35;81.84;100220.72;5029697;28;20149;-71
2022/11/08 09:22:50;;;;;;;1.30;0.77;;;;;;;15.49;81.60;100236.16;5031787;28;20033;-70
2022/11/08 09:25:18;;;;;;;1.80;0.90;;;;;;;15.36;81.81;100224.19;5026257;28;20468;-71
2022/11/08 09:27:44;;;;;;;2.78;0.65;;;;;;;15.52;81.01;100219.09;5022234;28;20036;-70
2022/11/08 09:30:09;;;;;;;1.20;0.80;;;;;;;15.76;80.87;100225.50;4998525;28;20495;-70
2022/11/08 09:32:35;;;;;;;1.48;0.80;;;;;;;15.84;79.78;100218.84;5028739;28;20022;-71
2022/11/08 09:35:00;;;;;;;2.88;0.65;;;;;;;15.89;79.35;100227.31;5022811;28;20415;-70
2022/11/08 09:37:27;;;;;;;1.48;0.85;;;;;;;15.97;79.46;100220.66;5008969;28;20118;-70
2022/11/08 09:39:53;;;;;;;0.60;0.55;;;;;;;16.14;78.49;100211.56;5006727;28;20029;-72
2022/11/08 09:42:37;;;;;;;0.82;0.60;;;;;;;16.33;78.23;100207.53;5005129;28;20037;-72
2022/11/08 09:45:25;;;;;;;0.95;0.70;;;;;;;16.31;78.11;100206.38;5003510;28;20046;-71
2022/11/08 09:47:57;;;;;;;0.75;0.57;;;;;;;16.32;77.65;100205.97;5004121;28;20042;-71
2022/11/08 09:50:42;;;;;;;1.65;0.50;;;;;;;16.42;77.45;100204.31;5004219;28;20123;-70
2022/11/08 09:53:17;;;;;;;0.50;0.50;;;;;;;16.47;76.71;100217.47;5002800;28;20436;-71
2022/11/08 09:55:50;;;;;;;3.83;0.52;;;;;;;16.37;77.25;100202.03;4996576;28;20454;-71
2022/11/08 09:58:39;;;;;;;2.92;0.95;;;;;;;16.09;78.25;100195.72;5015934;28;20045;-71
2022/11/08 10:01:10;;;;;;;2.08;0.75;;;;;;;15.99;79.12;100193.88;5004151;28;20044;-71
2022/11/08 10:03:36;;;;;;;3.13;0.50;;;;;;;16.23;78.63;100203.75;5004603;28;20034;-71
2022/11/08 10:06:02;;;;;;;3.95;0.82;;;;;;;16.31;77.45;100193.56;5006334;28;20513;-71
2022/11/08 10:09:04;;;;;;;2.00;0.80;;;;;;;16.40;77.52;100193.06;5006028;28;20057;-71
2022/11/08 10:11:42;;;;;;;0.50;0.47;;;;;;;16.39;77.54;100188.81;4998092;28;20474;-70
2022/11/08 10:14:41;;;;;;;1.17;0.70;;;;;;;16.20;78.36;100185.50;5003132;28;20049;-71
2022/11/08 10:17:15;;;;;;;3.42;0.77;;;;;;;16.05;79.53;100180.63;5018247;28;20052;-70
2022/11/08 10:20:01;;;;;;;1.98;0.50;;;;;;;16.13;78.86;100173.94;5008454;28;20082;-71
2022/11/08 10:22:52;;;;;;;2.42;1.05;;;;;;;16.24;78.88;100177.31;5000008;28;20037;-71
2022/11/08 10:25:28;;;;;;;1.60;0.83;;;;;;;16.15;78.56;100160.72;5002750;28;20541;-71
2022/11/08 10:27:58;;;;;;;1.05;0.50;;;;;;;16.02;79.12;100159.69;5000269;28;20029;-71
2022/11/08 10:30:32;;;;;;;0.85;0.60;;;;;;;16.00;78.70;100146.53;4996256;28;20037;-71
2022/11/08 10:32:57;;;;;;;1.60;0.60;;;;;;;15.85;79.54;100147.81;5020345;28;20053;-69
2022/11/08 10:35:40;;;;;;;0.82;0.55;;;;;;;16.06;79.23;100150.34;5004915;28;20038;-70
2022/11/08 10:38:38;;;;;;;1.58;0.60;;;;;;;16.11;78.40;100136.31;5009889;28;20064;-70
2022/11/08 10:41:09;;;;;;;4.10;0.80;;;;;;;16.25;77.91;100132.66;5009132;28;20407;-70
2022/11/08 10:43:39;;;;;;;;;;;;;;;16.30;77.77;100126.03;5019234;28;20536;-71
2022/11/08 10:46:29;;;;;;;3.53;0.55;;;;;;;16.58;77.55;100131.13;5012552;28;19917;-70
2022/11/08 10:49:06;;;;;;;1.23;0.70;;;;;;;16.48;77.16;100121.94;5004015;28;20038;-71
2022/11/08 10:51:32;;;;;;;1.45;0.43;;;;;;;16.57;76.93;100113.31;5011855;28;20394;-70
2022/11/08 10:53:57;;;;;;;1.42;1.05;;;;;;;16.48;76.97;100110.25;5012472;28;20101;-70
2022/11/08 10:56:23;;;;;;;1.10;0.68;;;;;;;16.66;77.45;100097.25;5027048;28;20133;-70
2022/11/08 10:58:49;;;;;;;3.40;1.15;;;;;;;16.80;76.56;100095.09;5010647;28;20105;-71
2022/11/08 11:01:20;;;;;;;2.13;0.50;;;;;;;16.57;77.89;100080.69;5012692;28;20121;-70
2022/11/08 11:03:47;;;;;;;0.75;0.50;;;;;;;16.48;77.88;100093.94;5012392;28;20587;-71
2022/11/08 11:06:26;;;;;;;2.17;0.85;;;;;;;16.60;77.77;100090.72;5007191;28;20045;-70
2022/11/08 11:09:15;;;;;;;2.28;0.70;;;;;;;16.59;77.62;100081.03;5001155;28;20136;-70
2022/11/08 11:11:41;;;;;;;0.73;0.45;;;;;;;16.75;77.74;100087.41;5006208;28;20053;-70
2022/11/08 11:14:16;;;;;;;1.27;0.63;;;;;;;16.83;77.02;100061.66;5005474;28;20044;-71
2022/11/08 11:17:02;;;;;;;0.77;0.60;;;;;;;17.01;75.92;100081.16;5006855;28;20060;-71
2022/11/08 11:19:28;;;;;;;4.82;0.60;;;;;;;16.80;76.46;100070.59;5009470;28;20447;-70
2022/11/08 11:21:56;;;;;;;7.20;0.77;;;;;;;16.55;78.26;100081.06;5006645;28;20113;-71
2022/11/08 11:24:23;;;;;;;1.05;0.60;;;;;;;16.65;78.38;100071.22;5009424;28;20255;-70
2022/11/08 11:27:00;;;;;;;1.40;0.70;;;;;;;16.62;78.51;100077.50;5011399;28;20038;-71
2022/11/08 11:29:28;;;;;;;3.08;0.65;;;;;;;16.68;78.91;100071.19;5012392;28;20037;-70
2022/11/08 11:31:54;;;;;;;1.10;0.50;;;;;;;16.84;77.92;100076.03;4993401;28;20069;-70
2022/11/08 11:34:19;;;;;;;4.40;0.85;;;;;;;16.85;77.76;100074.81;5009407;28;20073;-71
2022/11/08 11:36:58;;;;;;;4.00;0.77;;;;;;;16.75;78.46;100076.53;5011858;28;20129;-70
2022/11/08 11:39:30;;;;;;;1.30;0.70;;;;;;;16.91;77.78;100070.47;5006958;28;20040;-71
2022/11/08 11:42:05;;;;;;;5.38;0.60;;;;;;;17.02;77.47;100073.78;5007827;28;20133;-71
2022/11/08 11:44:40;;;;;;;1.00;0.57;;;;;;;17.09;77.40;100076.41;5007786;28;20034;-71
2022/11/08 11:47:14;;;;;;;0.60;0.55;;;;;;;17.22;77.45;100066.47;5007435;28;20038;-71
2022/11/08 11:49:42;;;;;;;1.15;0.57;;;;;;;17.33;76.33;100077.94;5010586;28;20038;-71
2022/11/08 11:52:17;;;;;;;1.05;0.47;;;;;;;17.07;77.55;100071.38;5013531;28;20426;-71